sensor_id;sensor_type;location;lat;lon;timestamp;temperature;humidity
51815;DHT22;37874;53.158;6.766;2023-05-27T00:01:11;21.90;54.10
51815;DHT22;37874;53.158;6.766;2023-05-27T00:03:38;21.80;54.00
51815;DHT22;37874;53.158;6.766;2023-05-27T00:06:03;21.80;54.00
51815;DHT22;37874;53.158;6.766;2023-05-27T00:08:29;21.90;54.00
51815;DHT22;37874;53.158;6.766;2023-05-27T00:10:55;21.70;53.70
51815;DHT22;37874;53.158;6.766;2023-05-27T00:13:20;21.90;53.90
51815;DHT22;37874;53.158;6.766;2023-05-27T00:15:46;21.90;54.40
51815;DHT22;37874;53.158;6.766;2023-05-27T00:18:11;21.90;53.70
51815;DHT22;37874;53.158;6.766;2023-05-27T00:20:37;21.90;53.70
51815;DHT22;37874;53.158;6.766;2023-05-27T00:23:02;21.90;53.60
51815;DHT22;37874;53.158;6.766;2023-05-27T00:25:28;21.90;53.60
51815;DHT22;37874;53.158;6.766;2023-05-27T00:27:55;21.90;54.10
51815;DHT22;37874;53.158;6.766;2023-05-27T00:30:21;21.90;53.40
51815;DHT22;37874;53.158;6.766;2023-05-27T00:32:46;21.90;53.30
51815;DHT22;37874;53.158;6.766;2023-05-27T00:35:12;21.90;53.40
51815;DHT22;37874;53.158;6.766;2023-05-27T00:37:38;21.80;53.30
51815;DHT22;37874;53.158;6.766;2023-05-27T00:40:04;21.80;53.20
51815;DHT22;37874;53.158;6.766;2023-05-27T00:42:32;21.80;53.30
51815;DHT22;37874;53.158;6.766;2023-05-27T00:44:58;21.80;53.10
51815;DHT22;37874;53.158;6.766;2023-05-27T00:47:27;21.80;53.10
51815;DHT22;37874;53.158;6.766;2023-05-27T00:49:54;21.80;53.00
51815;DHT22;37874;53.158;6.766;2023-05-27T00:52:20;21.80;53.00
51815;DHT22;37874;53.158;6.766;2023-05-27T00:54:47;21.80;52.90
51815;DHT22;37874;53.158;6.766;2023-05-27T00:57:13;21.80;53.00
51815;DHT22;37874;53.158;6.766;2023-05-27T00:59:38;21.80;52.90
51815;DHT22;37874;53.158;6.766;2023-05-27T01:02:05;21.70;52.90
51815;DHT22;37874;53.158;6.766;2023-05-27T01:04:31;21.80;53.00
51815;DHT22;37874;53.158;6.766;2023-05-27T01:09:39;21.80;52.90
51815;DHT22;37874;53.158;6.766;2023-05-27T01:14:58;21.80;53.00
51815;DHT22;37874;53.158;6.766;2023-05-27T01:17:25;21.70;52.80
51815;DHT22;37874;53.158;6.766;2023-05-27T01:19:52;21.70;52.70
51815;DHT22;37874;53.158;6.766;2023-05-27T01:22:19;21.80;52.80
51815;DHT22;37874;53.158;6.766;2023-05-27T01:24:45;21.90;52.80
51815;DHT22;37874;53.158;6.766;2023-05-27T01:27:12;21.80;52.70
51815;DHT22;37874;53.158;6.766;2023-05-27T01:29:39;21.80;52.60
51815;DHT22;37874;53.158;6.766;2023-05-27T01:32:16;21.80;52.70
51815;DHT22;37874;53.158;6.766;2023-05-27T01:35:00;21.70;52.50
51815;DHT22;37874;53.158;6.766;2023-05-27T01:37:32;21.70;52.50
51815;DHT22;37874;53.158;6.766;2023-05-27T01:39:59;21.70;52.30
51815;DHT22;37874;53.158;6.766;2023-05-27T01:42:25;21.70;52.50
51815;DHT22;37874;53.158;6.766;2023-05-27T01:44:52;21.60;52.40
51815;DHT22;37874;53.158;6.766;2023-05-27T01:47:17;21.70;52.50
51815;DHT22;37874;53.158;6.766;2023-05-27T01:49:43;21.70;52.40
51815;DHT22;37874;53.158;6.766;2023-05-27T01:52:09;21.70;52.40
51815;DHT22;37874;53.158;6.766;2023-05-27T01:54:34;21.70;52.40
51815;DHT22;37874;53.158;6.766;2023-05-27T01:57:00;21.70;52.40
51815;DHT22;37874;53.158;6.766;2023-05-27T01:59:26;21.70;52.40
51815;DHT22;37874;53.158;6.766;2023-05-27T02:01:52;21.70;52.30
51815;DHT22;37874;53.158;6.766;2023-05-27T02:04:17;21.60;52.20
51815;DHT22;37874;53.158;6.766;2023-05-27T02:06:43;21.70;52.40
51815;DHT22;37874;53.158;6.766;2023-05-27T02:09:09;21.70;52.30
51815;DHT22;37874;53.158;6.766;2023-05-27T02:11:36;21.70;52.30
51815;DHT22;37874;53.158;6.766;2023-05-27T02:14:03;21.70;52.10
51815;DHT22;37874;53.158;6.766;2023-05-27T02:16:28;21.70;52.20
51815;DHT22;37874;53.158;6.766;2023-05-27T02:18:55;21.70;52.20
51815;DHT22;37874;53.158;6.766;2023-05-27T02:21:21;21.70;52.20
51815;DHT22;37874;53.158;6.766;2023-05-27T02:23:47;21.70;52.10
51815;DHT22;37874;53.158;6.766;2023-05-27T02:26:13;21.70;52.10
51815;DHT22;37874;53.158;6.766;2023-05-27T02:28:38;21.70;52.10
51815;DHT22;37874;53.158;6.766;2023-05-27T02:31:04;21.70;52.10
51815;DHT22;37874;53.158;6.766;2023-05-27T02:33:29;21.60;52.10
51815;DHT22;37874;53.158;6.766;2023-05-27T02:35:56;21.60;52.00
51815;DHT22;37874;53.158;6.766;2023-05-27T02:38:21;21.60;52.00
51815;DHT22;37874;53.158;6.766;2023-05-27T02:40:47;21.60;52.00
51815;DHT22;37874;53.158;6.766;2023-05-27T02:43:13;21.60;52.00
51815;DHT22;37874;53.158;6.766;2023-05-27T02:45:38;21.60;51.90
51815;DHT22;37874;53.158;6.766;2023-05-27T02:48:04;21.60;51.90
51815;DHT22;37874;53.158;6.766;2023-05-27T02:50:30;21.60;52.00
51815;DHT22;37874;53.158;6.766;2023-05-27T02:52:55;21.60;51.80
51815;DHT22;37874;53.158;6.766;2023-05-27T02:55:21;21.60;51.80
51815;DHT22;37874;53.158;6.766;2023-05-27T02:57:47;21.60;52.30
51815;DHT22;37874;53.158;6.766;2023-05-27T03:00:13;21.70;51.90
51815;DHT22;37874;53.158;6.766;2023-05-27T03:02:39;21.60;51.80
51815;DHT22;37874;53.158;6.766;2023-05-27T03:05:05;21.70;51.80
51815;DHT22;37874;53.158;6.766;2023-05-27T03:07:31;21.60;51.70
51815;DHT22;37874;53.158;6.766;2023-05-27T03:09:57;21.60;51.60
51815;DHT22;37874;53.158;6.766;2023-05-27T03:12:23;21.60;51.70
51815;DHT22;37874;53.158;6.766;2023-05-27T03:14:49;21.60;51.70
51815;DHT22;37874;53.158;6.766;2023-05-27T03:17:15;21.60;51.60
51815;DHT22;37874;53.158;6.766;2023-05-27T03:19:41;21.60;51.80
51815;DHT22;37874;53.158;6.766;2023-05-27T03:22:08;21.60;51.70
51815;DHT22;37874;53.158;6.766;2023-05-27T03:24:34;21.60;51.70
51815;DHT22;37874;53.158;6.766;2023-05-27T03:27:01;21.60;51.70
51815;DHT22;37874;53.158;6.766;2023-05-27T03:29:27;21.60;51.60
51815;DHT22;37874;53.158;6.766;2023-05-27T03:31:52;21.60;51.50
51815;DHT22;37874;53.158;6.766;2023-05-27T03:34:18;21.60;51.60
51815;DHT22;37874;53.158;6.766;2023-05-27T03:36:44;21.60;51.50
51815;DHT22;37874;53.158;6.766;2023-05-27T03:39:11;21.60;51.60
51815;DHT22;37874;53.158;6.766;2023-05-27T03:41:37;21.60;51.50
51815;DHT22;37874;53.158;6.766;2023-05-27T03:44:03;21.60;51.30
51815;DHT22;37874;53.158;6.766;2023-05-27T03:46:28;21.60;51.50
51815;DHT22;37874;53.158;6.766;2023-05-27T03:48:54;21.60;51.50
51815;DHT22;37874;53.158;6.766;2023-05-27T03:51:20;21.60;51.40
51815;DHT22;37874;53.158;6.766;2023-05-27T03:53:47;21.50;51.40
51815;DHT22;37874;53.158;6.766;2023-05-27T03:56:12;21.30;51.30
51815;DHT22;37874;53.158;6.766;2023-05-27T03:58:38;21.60;51.50
51815;DHT22;37874;53.158;6.766;2023-05-27T04:01:03;21.60;51.50
51815;DHT22;37874;53.158;6.766;2023-05-27T04:03:29;21.60;51.40
51815;DHT22;37874;53.158;6.766;2023-05-27T04:05:55;21.60;51.40
51815;DHT22;37874;53.158;6.766;2023-05-27T04:08:22;21.60;51.40
51815;DHT22;37874;53.158;6.766;2023-05-27T04:10:48;21.60;51.30
51815;DHT22;37874;53.158;6.766;2023-05-27T04:13:13;21.50;51.30
51815;DHT22;37874;53.158;6.766;2023-05-27T04:15:39;21.60;51.30
51815;DHT22;37874;53.158;6.766;2023-05-27T04:18:05;21.60;51.20
51815;DHT22;37874;53.158;6.766;2023-05-27T04:20:37;21.60;51.20
51815;DHT22;37874;53.158;6.766;2023-05-27T04:23:06;21.50;51.20
51815;DHT22;37874;53.158;6.766;2023-05-27T04:25:31;21.60;51.30
51815;DHT22;37874;53.158;6.766;2023-05-27T04:27:57;21.60;51.80
51815;DHT22;37874;53.158;6.766;2023-05-27T04:30:23;21.50;51.20
51815;DHT22;37874;53.158;6.766;2023-05-27T04:32:49;21.60;51.10
51815;DHT22;37874;53.158;6.766;2023-05-27T04:35:14;21.60;51.20
51815;DHT22;37874;53.158;6.766;2023-05-27T04:37:40;21.60;51.30
51815;DHT22;37874;53.158;6.766;2023-05-27T04:40:10;21.60;51.20
51815;DHT22;37874;53.158;6.766;2023-05-27T04:42:36;21.60;51.10
51815;DHT22;37874;53.158;6.766;2023-05-27T04:45:03;21.60;51.10
51815;DHT22;37874;53.158;6.766;2023-05-27T04:47:29;21.70;51.00
51815;DHT22;37874;53.158;6.766;2023-05-27T04:49:56;21.70;50.90
51815;DHT22;37874;53.158;6.766;2023-05-27T04:52:22;21.70;50.80
51815;DHT22;37874;53.158;6.766;2023-05-27T04:54:49;21.70;50.90
51815;DHT22;37874;53.158;6.766;2023-05-27T04:57:15;21.70;50.90
51815;DHT22;37874;53.158;6.766;2023-05-27T04:59:45;21.70;50.80
51815;DHT22;37874;53.158;6.766;2023-05-27T05:02:33;21.70;50.80
51815;DHT22;37874;53.158;6.766;2023-05-27T05:05:08;21.70;50.70
51815;DHT22;37874;53.158;6.766;2023-05-27T05:07:41;21.70;50.60
51815;DHT22;37874;53.158;6.766;2023-05-27T05:10:11;21.70;50.70
51815;DHT22;37874;53.158;6.766;2023-05-27T05:12:37;21.70;50.60
51815;DHT22;37874;53.158;6.766;2023-05-27T05:15:04;21.70;50.60
51815;DHT22;37874;53.158;6.766;2023-05-27T05:17:29;21.70;50.60
51815;DHT22;37874;53.158;6.766;2023-05-27T05:19:55;21.80;50.70
51815;DHT22;37874;53.158;6.766;2023-05-27T05:22:21;21.70;50.50
51815;DHT22;37874;53.158;6.766;2023-05-27T05:24:49;21.70;50.50
51815;DHT22;37874;53.158;6.766;2023-05-27T05:27:16;22.40;50.80
51815;DHT22;37874;53.158;6.766;2023-05-27T05:29:41;21.70;50.50
51815;DHT22;37874;53.158;6.766;2023-05-27T05:32:08;21.80;50.50
51815;DHT22;37874;53.158;6.766;2023-05-27T05:34:36;21.80;50.50
51815;DHT22;37874;53.158;6.766;2023-05-27T05:37:02;21.70;50.50
51815;DHT22;37874;53.158;6.766;2023-05-27T05:39:27;21.70;50.40
51815;DHT22;37874;53.158;6.766;2023-05-27T05:41:53;21.80;50.50
51815;DHT22;37874;53.158;6.766;2023-05-27T05:44:18;21.70;50.50
51815;DHT22;37874;53.158;6.766;2023-05-27T05:46:44;21.70;50.40
51815;DHT22;37874;53.158;6.766;2023-05-27T05:49:10;21.70;50.40
51815;DHT22;37874;53.158;6.766;2023-05-27T05:51:35;21.80;50.40
51815;DHT22;37874;53.158;6.766;2023-05-27T05:54:01;21.70;50.30
51815;DHT22;37874;53.158;6.766;2023-05-27T05:56:27;21.80;50.40
51815;DHT22;37874;53.158;6.766;2023-05-27T05:58:52;21.70;50.30
51815;DHT22;37874;53.158;6.766;2023-05-27T06:01:18;21.70;50.30
51815;DHT22;37874;53.158;6.766;2023-05-27T06:03:44;21.70;50.30
51815;DHT22;37874;53.158;6.766;2023-05-27T06:06:10;21.70;50.30
51815;DHT22;37874;53.158;6.766;2023-05-27T06:08:36;21.70;50.30
51815;DHT22;37874;53.158;6.766;2023-05-27T06:11:02;21.80;50.30
51815;DHT22;37874;53.158;6.766;2023-05-27T06:13:27;21.70;50.20
51815;DHT22;37874;53.158;6.766;2023-05-27T06:15:53;21.70;50.20
51815;DHT22;37874;53.158;6.766;2023-05-27T06:18:21;21.80;50.20
51815;DHT22;37874;53.158;6.766;2023-05-27T06:20:46;21.70;50.20
51815;DHT22;37874;53.158;6.766;2023-05-27T06:23:12;21.80;50.20
51815;DHT22;37874;53.158;6.766;2023-05-27T06:25:38;21.80;50.20
51815;DHT22;37874;53.158;6.766;2023-05-27T06:28:04;21.80;50.10
51815;DHT22;37874;53.158;6.766;2023-05-27T06:30:31;21.80;50.10
51815;DHT22;37874;53.158;6.766;2023-05-27T06:32:57;21.80;50.10
51815;DHT22;37874;53.158;6.766;2023-05-27T06:35:22;21.80;50.00
51815;DHT22;37874;53.158;6.766;2023-05-27T06:37:48;21.80;50.00
51815;DHT22;37874;53.158;6.766;2023-05-27T06:40:13;21.90;50.00
51815;DHT22;37874;53.158;6.766;2023-05-27T06:42:39;21.80;49.80
51815;DHT22;37874;53.158;6.766;2023-05-27T06:45:05;22.00;49.90
51815;DHT22;37874;53.158;6.766;2023-05-27T06:47:31;21.80;49.80
51815;DHT22;37874;53.158;6.766;2023-05-27T06:49:57;21.80;49.80
51815;DHT22;37874;53.158;6.766;2023-05-27T06:52:22;21.90;49.80
51815;DHT22;37874;53.158;6.766;2023-05-27T06:54:48;22.00;49.80
51815;DHT22;37874;53.158;6.766;2023-05-27T06:57:14;21.90;49.60
51815;DHT22;37874;53.158;6.766;2023-05-27T06:59:40;22.00;49.60
51815;DHT22;37874;53.158;6.766;2023-05-27T07:02:06;22.00;49.60
51815;DHT22;37874;53.158;6.766;2023-05-27T07:04:32;22.00;49.50
51815;DHT22;37874;53.158;6.766;2023-05-27T07:06:58;22.10;49.40
51815;DHT22;37874;53.158;6.766;2023-05-27T07:09:24;22.10;49.30
51815;DHT22;37874;53.158;6.766;2023-05-27T07:11:49;22.10;49.20
51815;DHT22;37874;53.158;6.766;2023-05-27T07:14:15;22.10;49.10
51815;DHT22;37874;53.158;6.766;2023-05-27T07:16:41;22.20;49.20
51815;DHT22;37874;53.158;6.766;2023-05-27T07:19:06;22.20;49.00
51815;DHT22;37874;53.158;6.766;2023-05-27T07:21:32;22.20;48.90
51815;DHT22;37874;53.158;6.766;2023-05-27T07:23:59;22.20;48.80
51815;DHT22;37874;53.158;6.766;2023-05-27T07:26:28;22.20;48.80
51815;DHT22;37874;53.158;6.766;2023-05-27T07:28:54;22.30;48.80
51815;DHT22;37874;53.158;6.766;2023-05-27T07:31:20;22.20;48.60
51815;DHT22;37874;53.158;6.766;2023-05-27T07:33:45;22.30;48.60
51815;DHT22;37874;53.158;6.766;2023-05-27T07:36:11;22.30;48.60
51815;DHT22;37874;53.158;6.766;2023-05-27T07:38:36;22.40;48.60
51815;DHT22;37874;53.158;6.766;2023-05-27T07:41:02;22.40;48.50
51815;DHT22;37874;53.158;6.766;2023-05-27T07:43:28;22.40;48.40
51815;DHT22;37874;53.158;6.766;2023-05-27T07:45:53;22.40;48.30
51815;DHT22;37874;53.158;6.766;2023-05-27T07:48:19;22.50;48.40
51815;DHT22;37874;53.158;6.766;2023-05-27T07:50:44;22.50;48.30
51815;DHT22;37874;53.158;6.766;2023-05-27T07:53:10;22.60;48.30
51815;DHT22;37874;53.158;6.766;2023-05-27T07:55:36;22.50;48.30
51815;DHT22;37874;53.158;6.766;2023-05-27T07:58:01;22.50;48.20
51815;DHT22;37874;53.158;6.766;2023-05-27T08:00:27;22.50;48.10
51815;DHT22;37874;53.158;6.766;2023-05-27T08:02:53;22.50;48.10
51815;DHT22;37874;53.158;6.766;2023-05-27T08:05:18;22.50;48.10
51815;DHT22;37874;53.158;6.766;2023-05-27T08:07:44;22.60;48.20
51815;DHT22;37874;53.158;6.766;2023-05-27T08:10:11;22.40;48.00
51815;DHT22;37874;53.158;6.766;2023-05-27T08:12:37;22.60;48.00
51815;DHT22;37874;53.158;6.766;2023-05-27T08:15:02;22.60;47.90
51815;DHT22;37874;53.158;6.766;2023-05-27T08:17:28;22.60;47.80
51815;DHT22;37874;53.158;6.766;2023-05-27T08:19:54;22.50;47.70
51815;DHT22;37874;53.158;6.766;2023-05-27T08:22:19;22.70;47.70
51815;DHT22;37874;53.158;6.766;2023-05-27T08:24:45;22.70;47.70
51815;DHT22;37874;53.158;6.766;2023-05-27T08:27:14;22.70;47.60
51815;DHT22;37874;53.158;6.766;2023-05-27T08:29:41;22.70;47.70
51815;DHT22;37874;53.158;6.766;2023-05-27T08:32:07;22.70;47.60
51815;DHT22;37874;53.158;6.766;2023-05-27T08:34:32;22.70;47.50
51815;DHT22;37874;53.158;6.766;2023-05-27T08:36:58;22.80;47.60
51815;DHT22;37874;53.158;6.766;2023-05-27T08:39:25;22.70;47.60
51815;DHT22;37874;53.158;6.766;2023-05-27T08:41:52;22.70;47.50
51815;DHT22;37874;53.158;6.766;2023-05-27T08:44:21;22.70;47.50
51815;DHT22;37874;53.158;6.766;2023-05-27T08:46:48;22.70;47.50
51815;DHT22;37874;53.158;6.766;2023-05-27T08:49:15;22.70;47.50
51815;DHT22;37874;53.158;6.766;2023-05-27T08:51:41;22.70;47.40
51815;DHT22;37874;53.158;6.766;2023-05-27T08:54:10;22.80;47.50
51815;DHT22;37874;53.158;6.766;2023-05-27T08:56:37;22.80;47.40
51815;DHT22;37874;53.158;6.766;2023-05-27T08:59:03;22.80;47.30
51815;DHT22;37874;53.158;6.766;2023-05-27T09:01:29;22.80;47.30
51815;DHT22;37874;53.158;6.766;2023-05-27T09:03:56;22.80;47.20
51815;DHT22;37874;53.158;6.766;2023-05-27T09:06:22;22.90;47.20
51815;DHT22;37874;53.158;6.766;2023-05-27T09:08:48;22.90;47.10
51815;DHT22;37874;53.158;6.766;2023-05-27T09:11:23;23.00;47.10
51815;DHT22;37874;53.158;6.766;2023-05-27T09:13:57;23.00;46.90
51815;DHT22;37874;53.158;6.766;2023-05-27T09:16:23;23.10;46.80
51815;DHT22;37874;53.158;6.766;2023-05-27T09:18:48;23.20;46.70
51815;DHT22;37874;53.158;6.766;2023-05-27T09:21:14;23.20;46.40
51815;DHT22;37874;53.158;6.766;2023-05-27T09:23:40;23.30;46.40
51815;DHT22;37874;53.158;6.766;2023-05-27T09:26:09;23.30;46.20
51815;DHT22;37874;53.158;6.766;2023-05-27T09:28:37;23.30;46.10
51815;DHT22;37874;53.158;6.766;2023-05-27T09:31:07;23.50;46.10
51815;DHT22;37874;53.158;6.766;2023-05-27T09:33:35;23.50;46.00
51815;DHT22;37874;53.158;6.766;2023-05-27T09:36:03;23.50;45.90
51815;DHT22;37874;53.158;6.766;2023-05-27T09:38:33;23.50;45.80
51815;DHT22;37874;53.158;6.766;2023-05-27T09:41:00;23.60;45.80
51815;DHT22;37874;53.158;6.766;2023-05-27T09:43:27;23.60;45.60
51815;DHT22;37874;53.158;6.766;2023-05-27T09:45:58;23.60;45.50
51815;DHT22;37874;53.158;6.766;2023-05-27T09:48:26;23.70;45.50
51815;DHT22;37874;53.158;6.766;2023-05-27T09:50:52;23.70;45.40
51815;DHT22;37874;53.158;6.766;2023-05-27T09:53:20;23.80;45.40
51815;DHT22;37874;53.158;6.766;2023-05-27T09:55:49;23.80;45.40
51815;DHT22;37874;53.158;6.766;2023-05-27T09:58:15;23.80;45.20
51815;DHT22;37874;53.158;6.766;2023-05-27T10:00:43;23.80;45.20
51815;DHT22;37874;53.158;6.766;2023-05-27T10:03:10;23.80;45.10
51815;DHT22;37874;53.158;6.766;2023-05-27T10:05:36;23.80;45.00
51815;DHT22;37874;53.158;6.766;2023-05-27T10:08:01;23.90;45.10
51815;DHT22;37874;53.158;6.766;2023-05-27T10:10:28;23.90;45.00
51815;DHT22;37874;53.158;6.766;2023-05-27T10:12:54;23.90;45.00
51815;DHT22;37874;53.158;6.766;2023-05-27T10:15:27;23.90;44.90
51815;DHT22;37874;53.158;6.766;2023-05-27T10:17:55;24.00;44.80
51815;DHT22;37874;53.158;6.766;2023-05-27T10:22:54;23.90;44.90
51815;DHT22;37874;53.158;6.766;2023-05-27T10:25:19;24.00;44.90
51815;DHT22;37874;53.158;6.766;2023-05-27T10:27:46;23.90;44.80
51815;DHT22;37874;53.158;6.766;2023-05-27T10:30:13;24.00;44.90
51815;DHT22;37874;53.158;6.766;2023-05-27T10:32:49;24.00;44.70
51815;DHT22;37874;53.158;6.766;2023-05-27T10:35:18;24.00;44.70
51815;DHT22;37874;53.158;6.766;2023-05-27T10:37:44;24.00;44.70
51815;DHT22;37874;53.158;6.766;2023-05-27T10:40:12;23.90;44.70
51815;DHT22;37874;53.158;6.766;2023-05-27T10:42:38;24.10;44.60
51815;DHT22;37874;53.158;6.766;2023-05-27T10:45:10;24.10;44.70
51815;DHT22;37874;53.158;6.766;2023-05-27T10:47:44;24.10;44.70
51815;DHT22;37874;53.158;6.766;2023-05-27T10:50:14;24.20;44.80
51815;DHT22;37874;53.158;6.766;2023-05-27T10:52:41;24.00;44.70
51815;DHT22;37874;53.158;6.766;2023-05-27T10:55:07;24.10;44.90
51815;DHT22;37874;53.158;6.766;2023-05-27T10:57:33;24.00;45.00
51815;DHT22;37874;53.158;6.766;2023-05-27T11:00:04;23.90;45.00
51815;DHT22;37874;53.158;6.766;2023-05-27T11:02:36;23.80;44.60
51815;DHT22;37874;53.158;6.766;2023-05-27T11:05:11;24.10;44.50
51815;DHT22;37874;53.158;6.766;2023-05-27T11:07:37;24.20;44.30
51815;DHT22;37874;53.158;6.766;2023-05-27T11:10:05;24.30;44.30
51815;DHT22;37874;53.158;6.766;2023-05-27T11:12:32;24.30;44.20
51815;DHT22;37874;53.158;6.766;2023-05-27T11:14:58;24.30;44.20
51815;DHT22;37874;53.158;6.766;2023-05-27T11:17:23;24.30;44.20
51815;DHT22;37874;53.158;6.766;2023-05-27T11:19:50;24.30;44.40
51815;DHT22;37874;53.158;6.766;2023-05-27T11:22:17;24.20;44.30
51815;DHT22;37874;53.158;6.766;2023-05-27T11:25:03;24.20;44.30
51815;DHT22;37874;53.158;6.766;2023-05-27T11:27:35;24.20;44.40
51815;DHT22;37874;53.158;6.766;2023-05-27T11:30:09;24.30;44.50
51815;DHT22;37874;53.158;6.766;2023-05-27T11:32:36;24.20;44.50
51815;DHT22;37874;53.158;6.766;2023-05-27T11:35:02;24.20;44.30
51815;DHT22;37874;53.158;6.766;2023-05-27T11:37:32;24.20;44.90
51815;DHT22;37874;53.158;6.766;2023-05-27T11:39:58;24.20;44.50
51815;DHT22;37874;53.158;6.766;2023-05-27T11:42:23;24.20;44.30
51815;DHT22;37874;53.158;6.766;2023-05-27T11:44:51;24.20;44.30
51815;DHT22;37874;53.158;6.766;2023-05-27T11:47:17;24.30;44.30
51815;DHT22;37874;53.158;6.766;2023-05-27T11:49:43;24.40;44.40
51815;DHT22;37874;53.158;6.766;2023-05-27T11:52:10;24.40;44.40
51815;DHT22;37874;53.158;6.766;2023-05-27T11:54:38;24.40;44.40
51815;DHT22;37874;53.158;6.766;2023-05-27T11:57:04;24.40;44.30
51815;DHT22;37874;53.158;6.766;2023-05-27T11:59:33;24.40;44.10
51815;DHT22;37874;53.158;6.766;2023-05-27T12:01:59;24.40;44.20
51815;DHT22;37874;53.158;6.766;2023-05-27T12:04:24;24.60;44.20
51815;DHT22;37874;53.158;6.766;2023-05-27T12:06:50;24.60;44.00
51815;DHT22;37874;53.158;6.766;2023-05-27T12:09:16;24.60;43.90
51815;DHT22;37874;53.158;6.766;2023-05-27T12:11:41;24.70;43.90
51815;DHT22;37874;53.158;6.766;2023-05-27T12:14:07;24.80;43.80
51815;DHT22;37874;53.158;6.766;2023-05-27T12:16:33;24.80;43.90
51815;DHT22;37874;53.158;6.766;2023-05-27T12:18:59;24.80;43.70
51815;DHT22;37874;53.158;6.766;2023-05-27T12:21:25;24.90;43.70
51815;DHT22;37874;53.158;6.766;2023-05-27T12:23:51;25.10;43.60
51815;DHT22;37874;53.158;6.766;2023-05-27T12:26:17;25.30;43.20
51815;DHT22;37874;53.158;6.766;2023-05-27T12:28:43;25.60;42.90
51815;DHT22;37874;53.158;6.766;2023-05-27T12:31:09;25.80;42.30
51815;DHT22;37874;53.158;6.766;2023-05-27T12:33:34;26.10;41.80
51815;DHT22;37874;53.158;6.766;2023-05-27T12:36:00;26.40;41.50
51815;DHT22;37874;53.158;6.766;2023-05-27T12:38:26;26.60;41.00
51815;DHT22;37874;53.158;6.766;2023-05-27T12:40:52;26.80;40.90
51815;DHT22;37874;53.158;6.766;2023-05-27T12:43:18;26.90;40.30
51815;DHT22;37874;53.158;6.766;2023-05-27T12:45:44;27.10;40.10
51815;DHT22;37874;53.158;6.766;2023-05-27T12:48:11;27.30;39.90
51815;DHT22;37874;53.158;6.766;2023-05-27T12:50:36;27.40;39.80
51815;DHT22;37874;53.158;6.766;2023-05-27T12:53:02;27.60;39.60
51815;DHT22;37874;53.158;6.766;2023-05-27T12:55:28;27.70;39.40
51815;DHT22;37874;53.158;6.766;2023-05-27T12:57:55;27.80;39.10
51815;DHT22;37874;53.158;6.766;2023-05-27T13:00:21;28.00;39.00
51815;DHT22;37874;53.158;6.766;2023-05-27T13:02:47;28.10;38.80
51815;DHT22;37874;53.158;6.766;2023-05-27T13:05:13;28.20;38.60
51815;DHT22;37874;53.158;6.766;2023-05-27T13:07:39;28.40;38.50
51815;DHT22;37874;53.158;6.766;2023-05-27T13:10:06;28.50;38.20
51815;DHT22;37874;53.158;6.766;2023-05-27T13:12:33;28.50;37.90
51815;DHT22;37874;53.158;6.766;2023-05-27T13:15:01;28.60;37.80
51815;DHT22;37874;53.158;6.766;2023-05-27T13:17:29;28.70;37.70
51815;DHT22;37874;53.158;6.766;2023-05-27T13:19:54;28.90;37.60
51815;DHT22;37874;53.158;6.766;2023-05-27T13:22:21;29.10;37.30
51815;DHT22;37874;53.158;6.766;2023-05-27T13:24:47;29.10;37.20
51815;DHT22;37874;53.158;6.766;2023-05-27T13:27:12;29.10;37.20
51815;DHT22;37874;53.158;6.766;2023-05-27T13:29:40;29.30;37.20
51815;DHT22;37874;53.158;6.766;2023-05-27T13:32:05;29.40;37.00
51815;DHT22;37874;53.158;6.766;2023-05-27T13:34:31;29.40;36.90
51815;DHT22;37874;53.158;6.766;2023-05-27T13:36:57;29.40;36.80
51815;DHT22;37874;53.158;6.766;2023-05-27T13:39:23;29.50;36.80
51815;DHT22;37874;53.158;6.766;2023-05-27T13:41:48;29.60;36.70
51815;DHT22;37874;53.158;6.766;2023-05-27T13:44:14;29.80;36.60
51815;DHT22;37874;53.158;6.766;2023-05-27T13:46:40;29.90;36.40
51815;DHT22;37874;53.158;6.766;2023-05-27T13:49:06;30.00;36.30
51815;DHT22;37874;53.158;6.766;2023-05-27T13:51:32;30.00;36.20
51815;DHT22;37874;53.158;6.766;2023-05-27T13:53:58;30.00;36.20
51815;DHT22;37874;53.158;6.766;2023-05-27T13:56:24;30.00;36.20
51815;DHT22;37874;53.158;6.766;2023-05-27T13:58:51;30.10;36.30
51815;DHT22;37874;53.158;6.766;2023-05-27T14:01:18;30.10;36.20
51815;DHT22;37874;53.158;6.766;2023-05-27T14:03:44;30.20;36.20
51815;DHT22;37874;53.158;6.766;2023-05-27T14:06:10;30.30;36.20
51815;DHT22;37874;53.158;6.766;2023-05-27T14:08:35;30.30;36.00
51815;DHT22;37874;53.158;6.766;2023-05-27T14:11:02;30.40;36.00
51815;DHT22;37874;53.158;6.766;2023-05-27T14:13:27;30.30;36.10
51815;DHT22;37874;53.158;6.766;2023-05-27T14:15:53;30.40;36.00
51815;DHT22;37874;53.158;6.766;2023-05-27T14:18:19;30.40;36.10
51815;DHT22;37874;53.158;6.766;2023-05-27T14:20:45;30.50;36.00
51815;DHT22;37874;53.158;6.766;2023-05-27T14:23:11;30.60;35.90
51815;DHT22;37874;53.158;6.766;2023-05-27T14:25:38;30.70;35.80
51815;DHT22;37874;53.158;6.766;2023-05-27T14:28:04;30.80;35.80
51815;DHT22;37874;53.158;6.766;2023-05-27T14:30:32;30.70;35.80
51815;DHT22;37874;53.158;6.766;2023-05-27T14:33:03;30.70;35.70
51815;DHT22;37874;53.158;6.766;2023-05-27T14:35:28;30.70;35.80
51815;DHT22;37874;53.158;6.766;2023-05-27T14:37:54;30.70;35.80
51815;DHT22;37874;53.158;6.766;2023-05-27T14:40:20;30.70;35.90
51815;DHT22;37874;53.158;6.766;2023-05-27T14:42:46;30.70;35.80
51815;DHT22;37874;53.158;6.766;2023-05-27T14:45:11;30.80;36.00
51815;DHT22;37874;53.158;6.766;2023-05-27T14:47:37;30.80;35.90
51815;DHT22;37874;53.158;6.766;2023-05-27T14:50:03;30.80;35.80
51815;DHT22;37874;53.158;6.766;2023-05-27T14:52:28;30.90;35.90
51815;DHT22;37874;53.158;6.766;2023-05-27T14:54:54;30.90;35.90
51815;DHT22;37874;53.158;6.766;2023-05-27T14:57:19;31.00;36.00
51815;DHT22;37874;53.158;6.766;2023-05-27T14:59:45;31.00;35.90
51815;DHT22;37874;53.158;6.766;2023-05-27T15:02:11;31.00;36.20
51815;DHT22;37874;53.158;6.766;2023-05-27T15:04:36;31.00;35.90
51815;DHT22;37874;53.158;6.766;2023-05-27T15:07:02;31.00;35.90
51815;DHT22;37874;53.158;6.766;2023-05-27T15:09:27;31.00;36.00
51815;DHT22;37874;53.158;6.766;2023-05-27T15:11:53;31.00;35.90
51815;DHT22;37874;53.158;6.766;2023-05-27T15:14:19;31.00;36.00
51815;DHT22;37874;53.158;6.766;2023-05-27T15:16:45;31.00;36.00
51815;DHT22;37874;53.158;6.766;2023-05-27T15:19:10;31.00;36.10
51815;DHT22;37874;53.158;6.766;2023-05-27T15:21:36;31.00;36.10
51815;DHT22;37874;53.158;6.766;2023-05-27T15:24:01;31.10;36.20
51815;DHT22;37874;53.158;6.766;2023-05-27T15:26:28;31.10;36.20
51815;DHT22;37874;53.158;6.766;2023-05-27T15:28:53;31.00;36.20
51815;DHT22;37874;53.158;6.766;2023-05-27T15:31:19;31.00;36.30
51815;DHT22;37874;53.158;6.766;2023-05-27T15:33:46;31.10;36.30